MST,Max TemperatureF,Mean TemperatureF,Min TemperatureF,Max Dew PointF,MeanDew PointF,Min DewpointF,Max Humidity, Mean Humidity, Min Humidity, Max Sea Level PressureIn, Mean Sea Level PressureIn, Min Sea Level PressureIn, Max VisibilityMiles, Mean VisibilityMiles, Min VisibilityMiles, Max Wind SpeedMPH, Mean Wind SpeedMPH, Max Gust SpeedMPH,PrecipitationIn, CloudCover, Events, WindDirDegrees
2012-12-1,54,43,32,37,34,30,89,70,50,30.09,30.04,30.00,10,10,10,24,7,31,0.00,0,,222
2012-12-2,54,43,31,38,34,28,85,68,50,30.03,29.92,29.83,10,10,10,31,13,46,0.00,2,,192
2012-12-3,53,42,30,39,34,28,96,73,50,30.27,30.11,29.93,10,10,10,16,3,21,T,3,,329
2012-12-4,61,45,29,34,30,27,92,62,32,30.36,30.27,30.21,10,10,10,16,5,22,0.00,1,,168
2012-12-5,62,46,29,28,26,23,72,48,23,30.19,30.07,29.97,10,10,10,20,8,25,0.00,3,,196
2012-12-6,56,47,37,39,33,26,85,64,43,29.98,29.94,29.86,10,10,10,9,3,12,T,4,Rain,107
2012-12-7,50,37,24,32,27,20,92,66,39,30.09,30.02,29.92,10,10,10,10,4,13,0.00,2,,18
2012-12-8,54,39,23,19,14,10,81,50,19,30.01,29.94,29.87,10,10,10,17,7,23,0.00,0,,234
2012-12-9,34,23,12,20,12,7,84,61,38,30.40,30.23,30.01,10,10,10,22,9,30,T,2,,12
2012-12-10,46,28,9,19,12,5,83,58,33,30.37,30.27,30.17,10,10,10,8,2,12,0.00,0,,52
2012-12-11,49,32,14,20,16,11,81,55,29,30.21,30.07,29.88,10,10,10,18,6,24,0.00,0,,202
2012-12-12,51,42,33,16,14,11,44,34,23,29.84,29.78,29.73,10,10,10,29,16,41,0.00,0,,203
2012-12-13,50,45,39,32,19,10,37,30,22,29.78,29.74,29.68,10,10,4,31,17,41,0.00,3,Snow,188
2012-12-14,39,35,30,35,31,25,100,86,72,29.84,29.66,29.52,10,9,2,23,10,31,T,8,Rain-Snow,216
2012-12-15,36,32,28,31,28,23,92,85,78,29.92,29.83,29.78,10,6,0,18,6,22,0.04,8,Fog-Snow,224
2012-12-16,35,30,25,28,25,21,92,81,69,30.07,29.99,29.89,10,10,10,15,7,21,0.00,5,,203
2012-12-17,41,34,26,32,28,23,89,80,70,30.05,29.97,29.86,10,10,10,24,12,33,0.00,3,,213
2012-12-18,43,36,29,34,27,18,96,85,73,29.85,29.67,29.53,10,5,0,24,12,37,0.03,7,Fog-Rain-Snow,302
2012-12-19,22,10,-2,18,6,-8,91,77,62,30.60,30.17,29.71,10,8,1,14,7,18,0.04,2,Snow,6
2012-12-20,27,9,-10,16,3,-13,91,76,61,30.64,30.51,30.37,10,10,10,8,1,9,0.00,0,,108
2012-12-21,39,21,2,19,9,0,80,59,37,30.40,30.24,30.16,10,10,10,22,7,29,0.00,0,,135
2012-12-22,42,28,13,20,14,4,73,54,34,30.16,30.06,29.94,10,10,10,25,11,35,0.00,0,,209
2012-12-23,42,30,18,29,23,15,68,59,49,30.12,30.01,29.90,10,10,10,20,8,25,0.00,2,,219
2012-12-24,39,34,29,31,25,4,92,73,54,30.17,29.87,29.76,10,6,0,35,10,44,0.11,7,Fog-Snow,262
2012-12-25,31,17,3,14,9,-1,92,74,55,30.34,30.20,29.93,10,10,10,15,4,20,0.00,1,,14
2012-12-26,31,27,23,25,20,8,92,67,42,29.88,29.77,29.72,10,8,1,24,12,31,T,7,Snow,210
2012-12-27,32,26,20,23,20,16,88,79,69,30.10,29.89,29.77,10,8,2,15,5,18,T,7,Snow,357
2012-12-28,31,19,6,17,12,5,96,72,47,30.29,30.21,30.10,10,10,10,9,3,13,0.01,2,,41
2012-12-29,35,23,10,16,10,6,84,61,38,30.25,30.15,30.01,10,10,10,12,3,15,0.00,2,,57
2012-12-30,25,19,13,21,16,8,91,76,60,30.04,29.93,29.85,10,4,0,10,3,15,0.11,8,Fog-Snow,348
2012-12-31,24,12,0,16,8,-3,92,79,65,30.40,30.11,29.94,10,6,2,10,3,21,T,5,Snow,20